Hlavní strana
METAR-TAF:

METAR-TAF

Letiště :

Mezinárodní letiště Male

Male, Maledivy

zeměpisná šířka: 04-12N, zeměpisná délka: 073-32E, výška: 2 m

Aktuální stav počasí

Zpráva byla vytvořena před 1 hodinou a 9 minutami, v 18:00 UTC
Jihozápadní vítr 11 kt
Teplota 29°C
Vlhkost vzduchu 79%
Tlak 1011 hPa
Viditelnost 10 km a více
Skoro jasno ve výšce 1800 ft, Vertikální cumulus.
Oblačno až skoro zataženo ve výšce 26000 ft

METAR: VRMM 151800Z 22011KT 9999 FEW018TCU BKN260 29/25 Q1011 TEMPO FEW018CB

Čas: 00:09 (19:09 UTC)

Předpověď počasí

Zpráva byla vytvořena před 2 hodinami a 9 minutami, v 17:00 UTC
Předpověď platná od 15 v 18 UTC do 16 v 24 UTC
Jihozápadní vítr 11 kt
Viditelnost 10 km a více
Skoro jasno ve výšce 1800 ft, Vertikální cumulus.
Dočasný
od 15 v 21 UTC do 16 v 03 UTC
Západojihozápadní vítr 17 kt s nárazy do 30 kt
Viditelnost: 5000 m
Skoro jasno ve výšce 1800 ft, Cumulonimbus.
bouřka, slabý déšť

TAF: VRMM 151700Z 1518/1624 22011KT 9999 FEW018TCU TEMPO 1521/1603 25017G30KT 5000 -TSRA FEW018CB

Stav a předpovědi počasí z více než 4 000 letišť (zprávy METAR a TAF).

Červené a žluté tečky na mapě představují dostupné meteorologické stanice.

Když kurzor umístíte na tečku, zobrazí se název stanice.

Pak kliknutím zobrazíte stav a předpověď počasí.

Chcete-li změnit mapu, kliknutím na zelené tlačítko se znaménkem +mapu přiblížíte, kliknutím na zelené tlačítko se znaménkem – mapu oddálíte a kliknutím na zelené šipky přejdete na sousední mapy.


METAR-TAF: